<?xml version="1.0" encoding="UTF-8" standalone="no" ?>
<gpx xmlns="http://www.topografix.com/GPX/1/1" xmlns:xsi="http://www.w3.org/2001/XMLSchema-instance" xsi:schemaLocation="http://www.topografix.com/GPX/1/1 http://www.topografix.com/GPX/1/1/gpx.xsd" version="1.1" creator="VisuGPX - https://www.visugpx.com">
  <metadata>
    <name>cavaliers aligot 2021 trajet retour 14 km</name>
  </metadata>
  <trk>
    <name><![CDATA[cavaliers aligot 2021 trajet retour 14 km]]></name>
    <trkseg>
      <trkpt lat="48.6614" lon="1.87994">
        <ele>172</ele>
        <time>2021-08-26T10:33:09+02:00</time>
      </trkpt>
      <trkpt lat="48.6611" lon="1.87993">
        <ele>173</ele>
        <time>2021-08-26T10:33:14+02:00</time>
      </trkpt>
      <trkpt lat="48.66077" lon="1.88027">
        <ele>173</ele>
        <time>2021-08-26T10:33:19+02:00</time>
      </trkpt>
      <trkpt lat="48.66044" lon="1.88039">
        <ele>172</ele>
        <time>2021-08-26T10:33:24+02:00</time>
      </trkpt>
      <trkpt lat="48.66001" lon="1.88034">
        <ele>170</ele>
        <time>2021-08-26T10:33:29+02:00</time>
      </trkpt>
      <trkpt lat="48.65967" lon="1.88047">
        <ele>170</ele>
        <time>2021-08-26T10:33:34+02:00</time>
      </trkpt>
      <trkpt lat="48.6595" lon="1.88084">
        <ele>170</ele>
        <time>2021-08-26T10:33:39+02:00</time>
      </trkpt>
      <trkpt lat="48.65918" lon="1.88267">
        <ele>175</ele>
        <time>2021-08-26T10:33:44+02:00</time>
      </trkpt>
      <trkpt lat="48.65897" lon="1.88405">
        <ele>172</ele>
        <time>2021-08-26T10:33:49+02:00</time>
      </trkpt>
      <trkpt lat="48.65874" lon="1.88463">
        <ele>172</ele>
        <time>2021-08-26T10:33:54+02:00</time>
      </trkpt>
      <trkpt lat="48.65698" lon="1.8853">
        <ele>172</ele>
        <time>2021-08-26T10:33:59+02:00</time>
      </trkpt>
      <trkpt lat="48.65573" lon="1.88523">
        <ele>172</ele>
        <time>2021-08-26T10:34:04+02:00</time>
      </trkpt>
      <trkpt lat="48.65469" lon="1.88468">
        <ele>170</ele>
        <time>2021-08-26T10:34:09+02:00</time>
      </trkpt>
      <trkpt lat="48.65423" lon="1.88443">
        <ele>168</ele>
        <time>2021-08-26T10:34:14+02:00</time>
      </trkpt>
      <trkpt lat="48.65424" lon="1.88108">
        <ele>175</ele>
        <time>2021-08-26T10:34:19+02:00</time>
      </trkpt>
      <trkpt lat="48.65262" lon="1.87931">
        <ele>174</ele>
        <time>2021-08-26T10:34:24+02:00</time>
      </trkpt>
      <trkpt lat="48.65067" lon="1.8787">
        <ele>169</ele>
        <time>2021-08-26T10:34:29+02:00</time>
      </trkpt>
      <trkpt lat="48.65022" lon="1.87972">
        <ele>173</ele>
        <time>2021-08-26T10:34:34+02:00</time>
      </trkpt>
      <trkpt lat="48.64953" lon="1.88097">
        <ele>174</ele>
        <time>2021-08-26T10:34:39+02:00</time>
      </trkpt>
      <trkpt lat="48.6483" lon="1.88355">
        <ele>170</ele>
        <time>2021-08-26T10:34:44+02:00</time>
      </trkpt>
      <trkpt lat="48.64697" lon="1.88632">
        <ele>173</ele>
        <time>2021-08-26T10:34:49+02:00</time>
      </trkpt>
      <trkpt lat="48.64657" lon="1.88721">
        <ele>171</ele>
        <time>2021-08-26T10:34:54+02:00</time>
      </trkpt>
      <trkpt lat="48.6451" lon="1.89036">
        <ele>172</ele>
        <time>2021-08-26T10:34:59+02:00</time>
      </trkpt>
      <trkpt lat="48.64411" lon="1.89238">
        <ele>176</ele>
        <time>2021-08-26T10:35:04+02:00</time>
      </trkpt>
      <trkpt lat="48.64149" lon="1.89786">
        <ele>174</ele>
        <time>2021-08-26T10:35:09+02:00</time>
      </trkpt>
      <trkpt lat="48.644" lon="1.90063">
        <ele>176</ele>
        <time>2021-08-26T10:35:14+02:00</time>
      </trkpt>
      <trkpt lat="48.64912" lon="1.9064">
        <ele>173</ele>
        <time>2021-08-26T10:35:19+02:00</time>
      </trkpt>
      <trkpt lat="48.65289" lon="1.9106">
        <ele>177</ele>
        <time>2021-08-26T10:35:24+02:00</time>
      </trkpt>
      <trkpt lat="48.64965" lon="1.91801">
        <ele>179</ele>
        <time>2021-08-26T10:35:29+02:00</time>
      </trkpt>
      <trkpt lat="48.64816" lon="1.92095">
        <ele>178</ele>
        <time>2021-08-26T10:35:34+02:00</time>
      </trkpt>
      <trkpt lat="48.64613" lon="1.92582">
        <ele>173</ele>
        <time>2021-08-26T10:35:39+02:00</time>
      </trkpt>
      <trkpt lat="48.6486" lon="1.92851">
        <ele>171</ele>
        <time>2021-08-26T10:35:44+02:00</time>
      </trkpt>
      <trkpt lat="48.65199" lon="1.93227">
        <ele>174</ele>
        <time>2021-08-26T10:35:49+02:00</time>
      </trkpt>
      <trkpt lat="48.65086" lon="1.93497">
        <ele>171</ele>
        <time>2021-08-26T10:35:54+02:00</time>
      </trkpt>
      <trkpt lat="48.65341" lon="1.94221">
        <ele>144</ele>
        <time>2021-08-26T10:35:59+02:00</time>
      </trkpt>
      <trkpt lat="48.65328" lon="1.94256">
        <ele>143</ele>
        <time>2021-08-26T10:36:04+02:00</time>
      </trkpt>
      <trkpt lat="48.65393" lon="1.94349">
        <ele>149</ele>
        <time>2021-08-26T10:36:09+02:00</time>
      </trkpt>
      <trkpt lat="48.65523" lon="1.94319">
        <ele>159</ele>
        <time>2021-08-26T10:36:14+02:00</time>
      </trkpt>
      <trkpt lat="48.65555" lon="1.94471">
        <ele>177</ele>
        <time>2021-08-26T10:36:19+02:00</time>
      </trkpt>
      <trkpt lat="48.65581" lon="1.94499">
        <ele>181</ele>
        <time>2021-08-26T10:36:24+02:00</time>
      </trkpt>
      <trkpt lat="48.65677" lon="1.94473">
        <ele>177</ele>
        <time>2021-08-26T10:36:29+02:00</time>
      </trkpt>
      <trkpt lat="48.65717" lon="1.94589">
        <ele>174</ele>
        <time>2021-08-26T10:36:34+02:00</time>
      </trkpt>
      <trkpt lat="48.65779" lon="1.94534">
        <ele>173</ele>
        <time>2021-08-26T10:36:39+02:00</time>
      </trkpt>
      <trkpt lat="48.6582" lon="1.94649">
        <ele>173</ele>
        <time>2021-08-26T10:36:44+02:00</time>
      </trkpt>
      <trkpt lat="48.65824" lon="1.94707">
        <ele>173</ele>
        <time>2021-08-26T10:36:49+02:00</time>
      </trkpt>
      <trkpt lat="48.65813" lon="1.94845">
        <ele>172</ele>
        <time>2021-08-26T10:36:54+02:00</time>
      </trkpt>
      <trkpt lat="48.65984" lon="1.95283">
        <ele>171</ele>
        <time>2021-08-26T10:36:59+02:00</time>
      </trkpt>
      <trkpt lat="48.66043" lon="1.95334">
        <ele>172</ele>
        <time>2021-08-26T10:37:04+02:00</time>
      </trkpt>
      <trkpt lat="48.66228" lon="1.95415">
        <ele>171</ele>
        <time>2021-08-26T10:37:09+02:00</time>
      </trkpt>
      <trkpt lat="48.66681" lon="1.95658">
        <ele>171</ele>
        <time>2021-08-26T10:37:14+02:00</time>
      </trkpt>
      <trkpt lat="48.66711" lon="1.95664">
        <ele>171</ele>
        <time>2021-08-26T10:37:19+02:00</time>
      </trkpt>
      <trkpt lat="48.66808" lon="1.95613">
        <ele>174</ele>
        <time>2021-08-26T10:37:24+02:00</time>
      </trkpt>
      <trkpt lat="48.66909" lon="1.95576">
        <ele>169</ele>
        <time>2021-08-26T10:37:29+02:00</time>
      </trkpt>
      <trkpt lat="48.66925" lon="1.95669">
        <ele>168</ele>
        <time>2021-08-26T10:37:34+02:00</time>
      </trkpt>
      <trkpt lat="48.66941" lon="1.95657">
        <ele>168</ele>
        <time>2021-08-26T10:37:39+02:00</time>
      </trkpt>
      <trkpt lat="48.67021" lon="1.95646">
        <ele>168</ele>
        <time>2021-08-26T10:37:44+02:00</time>
      </trkpt>
      <trkpt lat="48.67023" lon="1.95633">
        <ele>167</ele>
        <time>2021-08-26T10:37:49+02:00</time>
      </trkpt>
      <trkpt lat="48.67063" lon="1.956">
        <ele>167</ele>
        <time>2021-08-26T10:37:54+02:00</time>
      </trkpt>
      <trkpt lat="48.67159" lon="1.95633">
        <ele>158</ele>
        <time>2021-08-26T10:37:59+02:00</time>
      </trkpt>
      <trkpt lat="48.67206" lon="1.95699">
        <ele>154</ele>
        <time>2021-08-26T10:38:04+02:00</time>
      </trkpt>
      <trkpt lat="48.67245" lon="1.95744">
        <ele>152</ele>
        <time>2021-08-26T10:38:09+02:00</time>
      </trkpt>
      <trkpt lat="48.6725" lon="1.95765">
        <ele>151</ele>
        <time>2021-08-26T10:38:14+02:00</time>
      </trkpt>
      <trkpt lat="48.67331" lon="1.95818">
        <ele>143</ele>
        <time>2021-08-26T10:38:19+02:00</time>
      </trkpt>
      <trkpt lat="48.67424" lon="1.95919">
        <ele>128</ele>
        <time>2021-08-26T10:38:24+02:00</time>
      </trkpt>
      <trkpt lat="48.67413" lon="1.96005">
        <ele>127</ele>
        <time>2021-08-26T10:38:29+02:00</time>
      </trkpt>
      <trkpt lat="48.67515" lon="1.96124">
        <ele>124</ele>
        <time>2021-08-26T10:38:34+02:00</time>
      </trkpt>
      <trkpt lat="48.67525" lon="1.96112">
        <ele>123</ele>
        <time>2021-08-26T10:38:39+02:00</time>
      </trkpt>
      <trkpt lat="48.67673" lon="1.96146">
        <ele>127</ele>
        <time>2021-08-26T10:38:44+02:00</time>
      </trkpt>
      <trkpt lat="48.6768" lon="1.9612">
        <ele>129</ele>
        <time>2021-08-26T10:38:49+02:00</time>
      </trkpt>
      <trkpt lat="48.67688" lon="1.96112">
        <ele>131</ele>
        <time>2021-08-26T10:38:54+02:00</time>
      </trkpt>
      <trkpt lat="48.67712" lon="1.96017">
        <ele>133</ele>
        <time>2021-08-26T10:38:59+02:00</time>
      </trkpt>
      <trkpt lat="48.67785" lon="1.95902">
        <ele>142</ele>
        <time>2021-08-26T10:39:04+02:00</time>
      </trkpt>
      <trkpt lat="48.67871" lon="1.95739">
        <ele>151</ele>
        <time>2021-08-26T10:39:09+02:00</time>
      </trkpt>
      <trkpt lat="48.67957" lon="1.95623">
        <ele>160</ele>
        <time>2021-08-26T10:39:14+02:00</time>
      </trkpt>
      <trkpt lat="48.6799" lon="1.95563">
        <ele>165</ele>
        <time>2021-08-26T10:39:19+02:00</time>
      </trkpt>
      <trkpt lat="48.68015" lon="1.95455">
        <ele>161</ele>
        <time>2021-08-26T10:39:24+02:00</time>
      </trkpt>
      <trkpt lat="48.68038" lon="1.95469">
        <ele>166</ele>
        <time>2021-08-26T10:39:29+02:00</time>
      </trkpt>
      <trkpt lat="48.67877" lon="1.95935">
        <ele>171</ele>
        <time>2021-08-26T10:39:34+02:00</time>
      </trkpt>
      <trkpt lat="48.67806" lon="1.96057">
        <ele>166</ele>
        <time>2021-08-26T10:39:39+02:00</time>
      </trkpt>
      <trkpt lat="48.6778" lon="1.96173">
        <ele>163</ele>
        <time>2021-08-26T10:39:44+02:00</time>
      </trkpt>
      <trkpt lat="48.67831" lon="1.9628">
        <ele>170</ele>
        <time>2021-08-26T10:39:49+02:00</time>
      </trkpt>
      <trkpt lat="48.67927" lon="1.96332">
        <ele>175</ele>
        <time>2021-08-26T10:39:54+02:00</time>
      </trkpt>
      <trkpt lat="48.68128" lon="1.96279">
        <ele>168</ele>
        <time>2021-08-26T10:39:59+02:00</time>
      </trkpt>
      <trkpt lat="48.68314" lon="1.96168">
        <ele>174</ele>
        <time>2021-08-26T10:40:04+02:00</time>
      </trkpt>
      <trkpt lat="48.6849" lon="1.96101">
        <ele>160</ele>
        <time>2021-08-26T10:40:09+02:00</time>
      </trkpt>
      <trkpt lat="48.68558" lon="1.95905">
        <ele>169</ele>
        <time>2021-08-26T10:40:14+02:00</time>
      </trkpt>
      <trkpt lat="48.68593" lon="1.95915">
        <ele>171</ele>
        <time>2021-08-26T10:40:19+02:00</time>
      </trkpt>
      <trkpt lat="48.68652" lon="1.95996">
        <ele>175</ele>
        <time>2021-08-26T10:40:24+02:00</time>
      </trkpt>
      <trkpt lat="48.68662" lon="1.96073">
        <ele>177</ele>
        <time>2021-08-26T10:40:29+02:00</time>
      </trkpt>
      <trkpt lat="48.68752" lon="1.9584">
        <ele>179</ele>
        <time>2021-08-26T10:40:34+02:00</time>
      </trkpt>
      <trkpt lat="48.69041" lon="1.96102">
        <ele>174</ele>
        <time>2021-08-26T10:40:39+02:00</time>
      </trkpt>
    </trkseg>
  </trk>
</gpx>